sensor_id;sensor_type;location;lat;lon;timestamp;temperature;humidity
52709;DHT22;38606;52.986;6.980;2022-12-07T00:01:15;3.90;99.90
52709;DHT22;38606;52.986;6.980;2022-12-07T00:03:42;4.30;99.90
52709;DHT22;38606;52.986;6.980;2022-12-07T00:06:10;3.80;99.90
52709;DHT22;38606;52.986;6.980;2022-12-07T00:08:36;3.90;99.90
52709;DHT22;38606;52.986;6.980;2022-12-07T00:11:03;3.90;99.90
52709;DHT22;38606;52.986;6.980;2022-12-07T00:13:30;3.80;99.90
52709;DHT22;38606;52.986;6.980;2022-12-07T00:16:00;4.50;99.90
52709;DHT22;38606;52.986;6.980;2022-12-07T00:18:27;3.80;99.90
52709;DHT22;38606;52.986;6.980;2022-12-07T00:20:52;4.00;99.90
52709;DHT22;38606;52.986;6.980;2022-12-07T00:23:18;4.60;99.90
52709;DHT22;38606;52.986;6.980;2022-12-07T00:25:44;3.80;99.90
52709;DHT22;38606;52.986;6.980;2022-12-07T00:28:09;3.60;99.90
52709;DHT22;38606;52.986;6.980;2022-12-07T00:30:36;4.40;99.90
52709;DHT22;38606;52.986;6.980;2022-12-07T00:33:01;5.40;99.90
52709;DHT22;38606;52.986;6.980;2022-12-07T00:35:27;3.60;99.90
52709;DHT22;38606;52.986;6.980;2022-12-07T00:37:53;4.80;99.90
52709;DHT22;38606;52.986;6.980;2022-12-07T00:40:19;4.50;99.90
52709;DHT22;38606;52.986;6.980;2022-12-07T00:42:44;3.90;99.90
52709;DHT22;38606;52.986;6.980;2022-12-07T00:45:10;3.90;99.90
52709;DHT22;38606;52.986;6.980;2022-12-07T00:47:36;3.80;99.90
52709;DHT22;38606;52.986;6.980;2022-12-07T00:50:01;3.80;99.90
52709;DHT22;38606;52.986;6.980;2022-12-07T00:52:27;4.00;99.90
52709;DHT22;38606;52.986;6.980;2022-12-07T00:54:53;3.80;99.90
52709;DHT22;38606;52.986;6.980;2022-12-07T00:57:18;5.20;99.90
52709;DHT22;38606;52.986;6.980;2022-12-07T00:59:44;4.90;99.90
52709;DHT22;38606;52.986;6.980;2022-12-07T01:02:09;3.80;99.90
52709;DHT22;38606;52.986;6.980;2022-12-07T01:04:35;3.80;99.90
52709;DHT22;38606;52.986;6.980;2022-12-07T01:07:01;3.70;99.90
52709;DHT22;38606;52.986;6.980;2022-12-07T01:09:26;3.80;99.90
52709;DHT22;38606;52.986;6.980;2022-12-07T01:11:52;3.60;99.90
52709;DHT22;38606;52.986;6.980;2022-12-07T01:14:18;5.10;99.90
52709;DHT22;38606;52.986;6.980;2022-12-07T01:16:43;3.40;99.90
52709;DHT22;38606;52.986;6.980;2022-12-07T01:19:09;4.40;99.90
52709;DHT22;38606;52.986;6.980;2022-12-07T01:21:35;4.20;99.90
52709;DHT22;38606;52.986;6.980;2022-12-07T01:24:04;3.60;99.90
52709;DHT22;38606;52.986;6.980;2022-12-07T01:26:30;3.70;99.90
52709;DHT22;38606;52.986;6.980;2022-12-07T01:28:56;3.60;99.90
52709;DHT22;38606;52.986;6.980;2022-12-07T01:31:25;3.60;99.90
52709;DHT22;38606;52.986;6.980;2022-12-07T01:33:54;3.50;99.90
52709;DHT22;38606;52.986;6.980;2022-12-07T01:36:25;3.50;99.90
52709;DHT22;38606;52.986;6.980;2022-12-07T01:38:53;3.60;99.90
52709;DHT22;38606;52.986;6.980;2022-12-07T01:41:22;3.60;99.90
52709;DHT22;38606;52.986;6.980;2022-12-07T01:44:21;3.70;99.90
52709;DHT22;38606;52.986;6.980;2022-12-07T01:46:58;3.80;99.90
52709;DHT22;38606;52.986;6.980;2022-12-07T01:49:44;3.60;99.90
52709;DHT22;38606;52.986;6.980;2022-12-07T01:54:39;4.60;99.90
52709;DHT22;38606;52.986;6.980;2022-12-07T01:57:06;3.50;99.90
52709;DHT22;38606;52.986;6.980;2022-12-07T01:59:33;3.90;99.90
52709;DHT22;38606;52.986;6.980;2022-12-07T02:02:01;3.50;99.90
52709;DHT22;38606;52.986;6.980;2022-12-07T02:04:29;4.50;99.90
52709;DHT22;38606;52.986;6.980;2022-12-07T02:06:56;3.50;99.90
52709;DHT22;38606;52.986;6.980;2022-12-07T02:09:22;3.30;99.90
52709;DHT22;38606;52.986;6.980;2022-12-07T02:11:48;3.40;99.90
52709;DHT22;38606;52.986;6.980;2022-12-07T02:14:13;3.50;99.90
52709;DHT22;38606;52.986;6.980;2022-12-07T02:19:58;3.50;99.90
52709;DHT22;38606;52.986;6.980;2022-12-07T02:31:17;3.80;99.90
52709;DHT22;38606;52.986;6.980;2022-12-07T02:33:57;3.50;99.90
52709;DHT22;38606;52.986;6.980;2022-12-07T02:36:30;3.80;99.90
52709;DHT22;38606;52.986;6.980;2022-12-07T02:39:15;5.40;99.90
52709;DHT22;38606;52.986;6.980;2022-12-07T02:41:56;3.50;99.90
52709;DHT22;38606;52.986;6.980;2022-12-07T02:44:25;3.60;99.90
52709;DHT22;38606;52.986;6.980;2022-12-07T02:47:03;5.00;99.90
52709;DHT22;38606;52.986;6.980;2022-12-07T02:49:30;4.70;99.90
52709;DHT22;38606;52.986;6.980;2022-12-07T02:51:56;3.70;99.90
52709;DHT22;38606;52.986;6.980;2022-12-07T02:54:22;3.60;99.90
52709;DHT22;38606;52.986;6.980;2022-12-07T03:05:12;3.50;99.90
52709;DHT22;38606;52.986;6.980;2022-12-07T03:19:09;3.50;99.90
52709;DHT22;38606;52.986;6.980;2022-12-07T03:22:09;3.30;99.90
52709;DHT22;38606;52.986;6.980;2022-12-07T03:24:52;3.60;99.90
52709;DHT22;38606;52.986;6.980;2022-12-07T03:27:22;3.30;99.90
52709;DHT22;38606;52.986;6.980;2022-12-07T03:37:54;3.30;99.90
52709;DHT22;38606;52.986;6.980;2022-12-07T03:40:30;3.90;99.90
52709;DHT22;38606;52.986;6.980;2022-12-07T03:42:59;4.50;99.90
52709;DHT22;38606;52.986;6.980;2022-12-07T03:45:35;4.20;99.90
52709;DHT22;38606;52.986;6.980;2022-12-07T03:53:48;3.50;99.90
52709;DHT22;38606;52.986;6.980;2022-12-07T03:56:16;3.40;99.90
52709;DHT22;38606;52.986;6.980;2022-12-07T03:58:41;4.40;99.90
52709;DHT22;38606;52.986;6.980;2022-12-07T04:01:07;3.40;99.90
52709;DHT22;38606;52.986;6.980;2022-12-07T04:03:33;3.40;99.90
52709;DHT22;38606;52.986;6.980;2022-12-07T04:05:59;3.50;99.90
52709;DHT22;38606;52.986;6.980;2022-12-07T04:08:25;3.70;99.90
52709;DHT22;38606;52.986;6.980;2022-12-07T04:10:51;3.70;99.90
52709;DHT22;38606;52.986;6.980;2022-12-07T04:13:16;4.60;99.90
52709;DHT22;38606;52.986;6.980;2022-12-07T04:15:42;3.70;99.90
52709;DHT22;38606;52.986;6.980;2022-12-07T04:18:08;4.30;99.90
52709;DHT22;38606;52.986;6.980;2022-12-07T04:20:33;3.60;99.90
52709;DHT22;38606;52.986;6.980;2022-12-07T04:22:59;4.30;99.90
52709;DHT22;38606;52.986;6.980;2022-12-07T04:25:25;4.70;99.90
52709;DHT22;38606;52.986;6.980;2022-12-07T04:27:51;4.50;99.90
52709;DHT22;38606;52.986;6.980;2022-12-07T04:30:16;3.70;99.90
52709;DHT22;38606;52.986;6.980;2022-12-07T04:32:42;3.70;99.90
52709;DHT22;38606;52.986;6.980;2022-12-07T04:35:08;3.60;99.90
52709;DHT22;38606;52.986;6.980;2022-12-07T04:37:34;3.50;99.90
52709;DHT22;38606;52.986;6.980;2022-12-07T04:39:59;4.20;99.90
52709;DHT22;38606;52.986;6.980;2022-12-07T04:42:25;4.90;99.90
52709;DHT22;38606;52.986;6.980;2022-12-07T04:44:51;4.00;99.90
52709;DHT22;38606;52.986;6.980;2022-12-07T04:47:16;3.40;99.90
52709;DHT22;38606;52.986;6.980;2022-12-07T04:49:42;3.60;99.90
52709;DHT22;38606;52.986;6.980;2022-12-07T04:52:08;3.80;99.90
52709;DHT22;38606;52.986;6.980;2022-12-07T04:54:33;4.20;99.90
52709;DHT22;38606;52.986;6.980;2022-12-07T04:56:59;3.50;99.90
52709;DHT22;38606;52.986;6.980;2022-12-07T04:59:25;3.40;99.90
52709;DHT22;38606;52.986;6.980;2022-12-07T05:01:50;3.30;99.90
52709;DHT22;38606;52.986;6.980;2022-12-07T05:04:16;3.40;99.90
52709;DHT22;38606;52.986;6.980;2022-12-07T05:06:43;5.40;99.90
52709;DHT22;38606;52.986;6.980;2022-12-07T05:09:09;4.40;99.90
52709;DHT22;38606;52.986;6.980;2022-12-07T05:11:35;3.40;99.90
52709;DHT22;38606;52.986;6.980;2022-12-07T05:14:22;3.50;99.90
52709;DHT22;38606;52.986;6.980;2022-12-07T05:16:49;3.40;99.90
52709;DHT22;38606;52.986;6.980;2022-12-07T05:19:16;3.30;99.90
52709;DHT22;38606;52.986;6.980;2022-12-07T05:21:42;3.50;99.90
52709;DHT22;38606;52.986;6.980;2022-12-07T05:24:10;3.80;99.90
52709;DHT22;38606;52.986;6.980;2022-12-07T05:26:36;3.90;99.90
52709;DHT22;38606;52.986;6.980;2022-12-07T05:29:03;3.70;99.90
52709;DHT22;38606;52.986;6.980;2022-12-07T05:31:29;3.50;99.90
52709;DHT22;38606;52.986;6.980;2022-12-07T05:33:55;3.40;99.90
52709;DHT22;38606;52.986;6.980;2022-12-07T05:36:21;3.60;99.90
52709;DHT22;38606;52.986;6.980;2022-12-07T05:38:46;3.70;99.90
52709;DHT22;38606;52.986;6.980;2022-12-07T05:41:15;3.60;99.90
52709;DHT22;38606;52.986;6.980;2022-12-07T05:43:59;3.50;99.90
52709;DHT22;38606;52.986;6.980;2022-12-07T05:46:25;4.80;99.90
52709;DHT22;38606;52.986;6.980;2022-12-07T05:48:51;3.40;99.90
52709;DHT22;38606;52.986;6.980;2022-12-07T05:51:17;3.40;99.90
52709;DHT22;38606;52.986;6.980;2022-12-07T05:53:42;3.30;99.90
52709;DHT22;38606;52.986;6.980;2022-12-07T05:56:08;3.30;99.90
52709;DHT22;38606;52.986;6.980;2022-12-07T05:58:34;3.30;99.90
52709;DHT22;38606;52.986;6.980;2022-12-07T06:01:18;3.20;99.90
52709;DHT22;38606;52.986;6.980;2022-12-07T06:03:43;3.10;99.90
52709;DHT22;38606;52.986;6.980;2022-12-07T06:06:10;3.10;99.90
52709;DHT22;38606;52.986;6.980;2022-12-07T06:08:36;3.00;99.90
52709;DHT22;38606;52.986;6.980;2022-12-07T06:11:02;3.00;99.90
52709;DHT22;38606;52.986;6.980;2022-12-07T06:13:46;4.00;99.90
52709;DHT22;38606;52.986;6.980;2022-12-07T06:16:11;2.90;99.90
52709;DHT22;38606;52.986;6.980;2022-12-07T06:18:37;3.00;99.90
52709;DHT22;38606;52.986;6.980;2022-12-07T06:21:03;4.00;99.90
52709;DHT22;38606;52.986;6.980;2022-12-07T06:23:29;2.90;99.90
52709;DHT22;38606;52.986;6.980;2022-12-07T06:25:54;3.20;99.90
52709;DHT22;38606;52.986;6.980;2022-12-07T06:28:20;2.80;99.90
52709;DHT22;38606;52.986;6.980;2022-12-07T06:30:45;2.80;99.90
52709;DHT22;38606;52.986;6.980;2022-12-07T06:33:11;3.40;99.90
52709;DHT22;38606;52.986;6.980;2022-12-07T06:35:37;1.40;99.90
52709;DHT22;38606;52.986;6.980;2022-12-07T06:38:02;2.90;99.90
52709;DHT22;38606;52.986;6.980;2022-12-07T06:40:28;3.10;99.90
52709;DHT22;38606;52.986;6.980;2022-12-07T06:42:54;2.80;99.90
52709;DHT22;38606;52.986;6.980;2022-12-07T06:45:19;0.60;99.90
52709;DHT22;38606;52.986;6.980;2022-12-07T06:47:45;2.60;99.90
52709;DHT22;38606;52.986;6.980;2022-12-07T06:50:11;2.60;99.90
52709;DHT22;38606;52.986;6.980;2022-12-07T06:52:36;2.60;99.90
52709;DHT22;38606;52.986;6.980;2022-12-07T06:55:02;2.80;99.90
52709;DHT22;38606;52.986;6.980;2022-12-07T06:57:28;2.50;99.90
52709;DHT22;38606;52.986;6.980;2022-12-07T06:59:53;2.60;99.90
52709;DHT22;38606;52.986;6.980;2022-12-07T07:02:19;2.70;99.90
52709;DHT22;38606;52.986;6.980;2022-12-07T07:04:45;2.60;99.90
52709;DHT22;38606;52.986;6.980;2022-12-07T07:07:10;2.50;99.90
52709;DHT22;38606;52.986;6.980;2022-12-07T07:09:36;3.30;99.90
52709;DHT22;38606;52.986;6.980;2022-12-07T07:12:02;2.80;99.90
52709;DHT22;38606;52.986;6.980;2022-12-07T07:14:27;2.70;99.90
52709;DHT22;38606;52.986;6.980;2022-12-07T07:16:53;2.60;99.90
52709;DHT22;38606;52.986;6.980;2022-12-07T07:19:19;2.70;99.90
52709;DHT22;38606;52.986;6.980;2022-12-07T07:21:44;2.70;99.90
52709;DHT22;38606;52.986;6.980;2022-12-07T07:24:10;2.60;99.90
52709;DHT22;38606;52.986;6.980;2022-12-07T07:26:36;4.10;99.90
52709;DHT22;38606;52.986;6.980;2022-12-07T07:29:02;2.90;99.90
52709;DHT22;38606;52.986;6.980;2022-12-07T07:31:27;2.80;99.90
52709;DHT22;38606;52.986;6.980;2022-12-07T07:33:53;2.60;99.90
52709;DHT22;38606;52.986;6.980;2022-12-07T07:36:19;2.60;99.90
52709;DHT22;38606;52.986;6.980;2022-12-07T07:38:44;3.20;99.90
52709;DHT22;38606;52.986;6.980;2022-12-07T07:41:10;2.60;99.90
52709;DHT22;38606;52.986;6.980;2022-12-07T07:43:36;3.80;99.90
52709;DHT22;38606;52.986;6.980;2022-12-07T07:46:01;2.80;99.90
52709;DHT22;38606;52.986;6.980;2022-12-07T07:48:27;2.50;99.90
52709;DHT22;38606;52.986;6.980;2022-12-07T07:50:53;2.70;99.90
52709;DHT22;38606;52.986;6.980;2022-12-07T07:53:18;2.90;99.90
52709;DHT22;38606;52.986;6.980;2022-12-07T07:55:54;2.80;99.90
52709;DHT22;38606;52.986;6.980;2022-12-07T07:58:20;3.00;99.90
52709;DHT22;38606;52.986;6.980;2022-12-07T08:00:46;2.80;99.90
52709;DHT22;38606;52.986;6.980;2022-12-07T08:03:12;2.40;99.90
52709;DHT22;38606;52.986;6.980;2022-12-07T08:05:38;3.10;99.90
52709;DHT22;38606;52.986;6.980;2022-12-07T08:08:04;3.10;99.90
52709;DHT22;38606;52.986;6.980;2022-12-07T08:10:30;3.00;99.90
52709;DHT22;38606;52.986;6.980;2022-12-07T08:12:57;3.00;99.90
52709;DHT22;38606;52.986;6.980;2022-12-07T08:15:45;3.20;99.90
52709;DHT22;38606;52.986;6.980;2022-12-07T08:18:12;3.30;99.90
52709;DHT22;38606;52.986;6.980;2022-12-07T08:20:38;4.00;99.90
52709;DHT22;38606;52.986;6.980;2022-12-07T08:23:05;3.20;99.90
52709;DHT22;38606;52.986;6.980;2022-12-07T08:25:31;3.30;99.90
52709;DHT22;38606;52.986;6.980;2022-12-07T08:27:57;3.40;99.90
52709;DHT22;38606;52.986;6.980;2022-12-07T08:30:23;4.80;99.90
52709;DHT22;38606;52.986;6.980;2022-12-07T08:32:49;3.50;99.90
52709;DHT22;38606;52.986;6.980;2022-12-07T08:35:15;3.70;99.90
52709;DHT22;38606;52.986;6.980;2022-12-07T08:37:41;3.40;99.90
52709;DHT22;38606;52.986;6.980;2022-12-07T08:40:09;3.50;99.90
52709;DHT22;38606;52.986;6.980;2022-12-07T08:42:35;3.50;99.90
52709;DHT22;38606;52.986;6.980;2022-12-07T08:45:10;3.30;99.90
52709;DHT22;38606;52.986;6.980;2022-12-07T08:47:40;3.50;99.90
52709;DHT22;38606;52.986;6.980;2022-12-07T08:50:08;3.60;99.90
52709;DHT22;38606;52.986;6.980;2022-12-07T08:52:36;3.40;99.90
52709;DHT22;38606;52.986;6.980;2022-12-07T08:55:03;3.40;99.90
52709;DHT22;38606;52.986;6.980;2022-12-07T08:57:30;3.30;99.90
52709;DHT22;38606;52.986;6.980;2022-12-07T08:59:58;3.40;99.90
52709;DHT22;38606;52.986;6.980;2022-12-07T09:02:24;3.50;99.90
52709;DHT22;38606;52.986;6.980;2022-12-07T09:04:49;4.70;99.90
52709;DHT22;38606;52.986;6.980;2022-12-07T09:07:15;3.40;99.90
52709;DHT22;38606;52.986;6.980;2022-12-07T09:09:41;3.40;99.90
52709;DHT22;38606;52.986;6.980;2022-12-07T09:12:07;3.30;99.90
52709;DHT22;38606;52.986;6.980;2022-12-07T09:14:33;4.40;99.90
52709;DHT22;38606;52.986;6.980;2022-12-07T09:17:09;3.50;99.90
52709;DHT22;38606;52.986;6.980;2022-12-07T09:19:35;3.50;99.90
52709;DHT22;38606;52.986;6.980;2022-12-07T09:22:02;3.60;99.90
52709;DHT22;38606;52.986;6.980;2022-12-07T09:24:27;3.50;99.90
52709;DHT22;38606;52.986;6.980;2022-12-07T09:26:53;3.60;99.90
52709;DHT22;38606;52.986;6.980;2022-12-07T09:29:19;3.90;99.90
52709;DHT22;38606;52.986;6.980;2022-12-07T09:31:44;3.70;99.90
52709;DHT22;38606;52.986;6.980;2022-12-07T09:34:10;4.10;99.90
52709;DHT22;38606;52.986;6.980;2022-12-07T09:36:36;3.80;99.90
52709;DHT22;38606;52.986;6.980;2022-12-07T09:39:03;3.80;99.90
52709;DHT22;38606;52.986;6.980;2022-12-07T09:41:30;3.90;99.90
52709;DHT22;38606;52.986;6.980;2022-12-07T09:44:06;4.70;99.90
52709;DHT22;38606;52.986;6.980;2022-12-07T09:46:37;4.00;99.90
52709;DHT22;38606;52.986;6.980;2022-12-07T09:49:05;4.10;99.90
52709;DHT22;38606;52.986;6.980;2022-12-07T09:51:31;4.30;99.90
52709;DHT22;38606;52.986;6.980;2022-12-07T09:53:58;4.30;99.90
52709;DHT22;38606;52.986;6.980;2022-12-07T09:56:25;4.20;99.90
52709;DHT22;38606;52.986;6.980;2022-12-07T09:58:58;4.40;99.90
52709;DHT22;38606;52.986;6.980;2022-12-07T10:01:29;5.20;99.90
52709;DHT22;38606;52.986;6.980;2022-12-07T10:06:36;4.60;99.90
52709;DHT22;38606;52.986;6.980;2022-12-07T10:09:01;4.70;99.90
52709;DHT22;38606;52.986;6.980;2022-12-07T10:11:28;4.80;99.90
52709;DHT22;38606;52.986;6.980;2022-12-07T10:13:53;4.60;99.90
52709;DHT22;38606;52.986;6.980;2022-12-07T10:16:39;4.90;99.90
52709;DHT22;38606;52.986;6.980;2022-12-07T10:19:27;4.90;99.90
52709;DHT22;38606;52.986;6.980;2022-12-07T10:24:31;5.30;99.90
52709;DHT22;38606;52.986;6.980;2022-12-07T10:26:57;6.20;99.90
52709;DHT22;38606;52.986;6.980;2022-12-07T10:29:38;5.00;99.90
52709;DHT22;38606;52.986;6.980;2022-12-07T10:32:25;5.10;99.90
52709;DHT22;38606;52.986;6.980;2022-12-07T10:35:19;5.30;99.90
52709;DHT22;38606;52.986;6.980;2022-12-07T10:37:44;5.50;99.90
52709;DHT22;38606;52.986;6.980;2022-12-07T10:43:05;5.30;99.90
52709;DHT22;38606;52.986;6.980;2022-12-07T10:45:34;5.40;99.90
52709;DHT22;38606;52.986;6.980;2022-12-07T10:48:13;5.50;99.90
52709;DHT22;38606;52.986;6.980;2022-12-07T11:02:15;5.60;99.90
52709;DHT22;38606;52.986;6.980;2022-12-07T11:10:22;5.60;99.90
52709;DHT22;38606;52.986;6.980;2022-12-07T11:15:32;5.40;99.90
52709;DHT22;38606;52.986;6.980;2022-12-07T11:18:33;6.40;99.90
52709;DHT22;38606;52.986;6.980;2022-12-07T11:21:13;5.60;99.90
52709;DHT22;38606;52.986;6.980;2022-12-07T11:26:56;5.70;99.90
52709;DHT22;38606;52.986;6.980;2022-12-07T11:32:49;5.50;99.90
52709;DHT22;38606;52.986;6.980;2022-12-07T11:38:16;5.30;99.90
52709;DHT22;38606;52.986;6.980;2022-12-07T11:40:47;5.60;99.90
52709;DHT22;38606;52.986;6.980;2022-12-07T11:43:28;6.20;99.90
52709;DHT22;38606;52.986;6.980;2022-12-07T11:46:12;5.60;99.90
52709;DHT22;38606;52.986;6.980;2022-12-07T11:49:02;5.60;99.90
52709;DHT22;38606;52.986;6.980;2022-12-07T11:51:33;5.60;99.90
52709;DHT22;38606;52.986;6.980;2022-12-07T11:54:05;7.40;99.90
52709;DHT22;38606;52.986;6.980;2022-12-07T11:56:37;5.70;99.90
52709;DHT22;38606;52.986;6.980;2022-12-07T12:06:43;5.70;99.90
52709;DHT22;38606;52.986;6.980;2022-12-07T12:09:17;5.70;99.90
52709;DHT22;38606;52.986;6.980;2022-12-07T12:17:40;5.60;99.90
52709;DHT22;38606;52.986;6.980;2022-12-07T12:20:31;5.60;99.90
52709;DHT22;38606;52.986;6.980;2022-12-07T12:23:15;6.40;99.90
52709;DHT22;38606;52.986;6.980;2022-12-07T12:25:47;7.00;99.90
52709;DHT22;38606;52.986;6.980;2022-12-07T12:28:39;5.50;99.90
52709;DHT22;38606;52.986;6.980;2022-12-07T12:31:12;5.60;99.90
52709;DHT22;38606;52.986;6.980;2022-12-07T12:33:49;5.50;99.90
52709;DHT22;38606;52.986;6.980;2022-12-07T12:47:03;5.50;99.90
52709;DHT22;38606;52.986;6.980;2022-12-07T12:54:33;5.30;99.90
52709;DHT22;38606;52.986;6.980;2022-12-07T12:57:24;5.30;99.90
52709;DHT22;38606;52.986;6.980;2022-12-07T13:02:34;5.10;99.90
52709;DHT22;38606;52.986;6.980;2022-12-07T13:15:39;5.00;99.90
52709;DHT22;38606;52.986;6.980;2022-12-07T13:29:14;4.90;99.90
52709;DHT22;38606;52.986;6.980;2022-12-07T13:37:27;5.80;99.90
52709;DHT22;38606;52.986;6.980;2022-12-07T13:39:56;4.90;99.90
52709;DHT22;38606;52.986;6.980;2022-12-07T13:44:52;6.30;99.90
52709;DHT22;38606;52.986;6.980;2022-12-07T13:47:43;6.20;99.90
52709;DHT22;38606;52.986;6.980;2022-12-07T13:50:30;5.10;99.90
52709;DHT22;38606;52.986;6.980;2022-12-07T13:52:59;5.20;99.90
52709;DHT22;38606;52.986;6.980;2022-12-07T13:55:26;5.30;99.90
52709;DHT22;38606;52.986;6.980;2022-12-07T13:57:54;5.50;99.90
52709;DHT22;38606;52.986;6.980;2022-12-07T14:00:25;4.90;99.90
52709;DHT22;38606;52.986;6.980;2022-12-07T14:05:33;5.00;99.90
52709;DHT22;38606;52.986;6.980;2022-12-07T14:08:03;4.90;99.90
52709;DHT22;38606;52.986;6.980;2022-12-07T14:10:31;7.00;99.90
52709;DHT22;38606;52.986;6.980;2022-12-07T14:12:59;4.00;99.90
52709;DHT22;38606;52.986;6.980;2022-12-07T14:15:28;4.90;99.90
52709;DHT22;38606;52.986;6.980;2022-12-07T14:17:56;5.50;99.90
52709;DHT22;38606;52.986;6.980;2022-12-07T14:22:57;4.80;99.90
52709;DHT22;38606;52.986;6.980;2022-12-07T14:25:27;5.30;99.90
52709;DHT22;38606;52.986;6.980;2022-12-07T14:27:57;4.90;99.90
52709;DHT22;38606;52.986;6.980;2022-12-07T14:30:26;4.90;99.90
52709;DHT22;38606;52.986;6.980;2022-12-07T14:33:04;4.70;99.90
52709;DHT22;38606;52.986;6.980;2022-12-07T14:35:31;4.70;99.90
52709;DHT22;38606;52.986;6.980;2022-12-07T14:37:57;5.00;99.90
52709;DHT22;38606;52.986;6.980;2022-12-07T14:40:27;4.60;99.90
52709;DHT22;38606;52.986;6.980;2022-12-07T14:43:13;4.70;99.90
52709;DHT22;38606;52.986;6.980;2022-12-07T14:45:40;5.10;99.90
52709;DHT22;38606;52.986;6.980;2022-12-07T14:48:07;4.50;99.90
52709;DHT22;38606;52.986;6.980;2022-12-07T14:50:42;5.20;99.90
52709;DHT22;38606;52.986;6.980;2022-12-07T14:53:14;4.60;99.90
52709;DHT22;38606;52.986;6.980;2022-12-07T14:55:41;4.40;99.90
52709;DHT22;38606;52.986;6.980;2022-12-07T14:58:16;4.50;99.90
52709;DHT22;38606;52.986;6.980;2022-12-07T15:00:43;4.50;99.90
52709;DHT22;38606;52.986;6.980;2022-12-07T15:03:08;4.60;99.90
52709;DHT22;38606;52.986;6.980;2022-12-07T15:05:34;4.20;99.90
52709;DHT22;38606;52.986;6.980;2022-12-07T15:08:00;4.30;99.90
52709;DHT22;38606;52.986;6.980;2022-12-07T15:10:28;4.90;99.90
52709;DHT22;38606;52.986;6.980;2022-12-07T15:12:57;4.40;99.90
52709;DHT22;38606;52.986;6.980;2022-12-07T15:15:47;4.10;99.90
52709;DHT22;38606;52.986;6.980;2022-12-07T15:18:13;4.10;99.90
52709;DHT22;38606;52.986;6.980;2022-12-07T15:20:38;4.10;99.90
52709;DHT22;38606;52.986;6.980;2022-12-07T15:23:04;4.10;99.90
52709;DHT22;38606;52.986;6.980;2022-12-07T15:25:30;5.00;99.90
52709;DHT22;38606;52.986;6.980;2022-12-07T15:27:56;4.10;99.90
52709;DHT22;38606;52.986;6.980;2022-12-07T15:30:22;4.30;99.90
52709;DHT22;38606;52.986;6.980;2022-12-07T15:32:51;4.70;99.90
52709;DHT22;38606;52.986;6.980;2022-12-07T15:35:18;4.30;99.90
52709;DHT22;38606;52.986;6.980;2022-12-07T15:37:44;4.00;99.90
52709;DHT22;38606;52.986;6.980;2022-12-07T15:40:10;4.10;99.90
52709;DHT22;38606;52.986;6.980;2022-12-07T15:42:36;3.80;99.90
52709;DHT22;38606;52.986;6.980;2022-12-07T15:45:03;5.40;99.90
52709;DHT22;38606;52.986;6.980;2022-12-07T15:47:38;4.00;99.90
52709;DHT22;38606;52.986;6.980;2022-12-07T15:50:07;3.80;99.90
52709;DHT22;38606;52.986;6.980;2022-12-07T15:52:33;3.90;99.90
52709;DHT22;38606;52.986;6.980;2022-12-07T15:54:59;4.10;99.90
52709;DHT22;38606;52.986;6.980;2022-12-07T15:57:35;4.10;99.90
52709;DHT22;38606;52.986;6.980;2022-12-07T16:00:03;5.30;99.90
52709;DHT22;38606;52.986;6.980;2022-12-07T16:02:29;4.00;99.90
52709;DHT22;38606;52.986;6.980;2022-12-07T16:04:55;4.60;99.90
52709;DHT22;38606;52.986;6.980;2022-12-07T16:07:21;4.00;99.90
52709;DHT22;38606;52.986;6.980;2022-12-07T16:09:47;3.90;99.90
52709;DHT22;38606;52.986;6.980;2022-12-07T16:12:13;3.70;99.90
52709;DHT22;38606;52.986;6.980;2022-12-07T16:14:40;3.90;99.90
52709;DHT22;38606;52.986;6.980;2022-12-07T16:17:06;5.10;99.90
52709;DHT22;38606;52.986;6.980;2022-12-07T16:19:32;3.80;99.90
52709;DHT22;38606;52.986;6.980;2022-12-07T16:21:58;5.20;99.90
52709;DHT22;38606;52.986;6.980;2022-12-07T16:24:25;3.70;99.90
52709;DHT22;38606;52.986;6.980;2022-12-07T16:26:51;3.50;99.90
52709;DHT22;38606;52.986;6.980;2022-12-07T16:29:19;3.90;99.90
52709;DHT22;38606;52.986;6.980;2022-12-07T16:31:45;4.50;99.90
52709;DHT22;38606;52.986;6.980;2022-12-07T16:34:10;3.70;99.90
52709;DHT22;38606;52.986;6.980;2022-12-07T16:36:36;3.70;99.90
52709;DHT22;38606;52.986;6.980;2022-12-07T16:39:02;3.70;99.90
52709;DHT22;38606;52.986;6.980;2022-12-07T16:41:28;3.70;99.90
52709;DHT22;38606;52.986;6.980;2022-12-07T16:43:54;3.60;99.90
52709;DHT22;38606;52.986;6.980;2022-12-07T16:46:20;4.80;99.90
52709;DHT22;38606;52.986;6.980;2022-12-07T16:48:48;3.70;99.90
52709;DHT22;38606;52.986;6.980;2022-12-07T16:51:14;3.80;99.90
52709;DHT22;38606;52.986;6.980;2022-12-07T16:53:41;3.80;99.90
52709;DHT22;38606;52.986;6.980;2022-12-07T16:56:15;4.80;99.90
52709;DHT22;38606;52.986;6.980;2022-12-07T16:58:42;4.20;99.90
52709;DHT22;38606;52.986;6.980;2022-12-07T17:01:10;3.50;99.90
52709;DHT22;38606;52.986;6.980;2022-12-07T17:03:35;3.70;99.90
52709;DHT22;38606;52.986;6.980;2022-12-07T17:06:01;3.50;99.90
52709;DHT22;38606;52.986;6.980;2022-12-07T17:08:27;3.60;99.90
52709;DHT22;38606;52.986;6.980;2022-12-07T17:10:53;3.80;99.90
52709;DHT22;38606;52.986;6.980;2022-12-07T17:13:18;3.70;99.90
52709;DHT22;38606;52.986;6.980;2022-12-07T17:16:05;3.80;99.90
52709;DHT22;38606;52.986;6.980;2022-12-07T17:18:34;3.80;99.90
52709;DHT22;38606;52.986;6.980;2022-12-07T17:21:09;4.90;99.90
52709;DHT22;38606;52.986;6.980;2022-12-07T17:23:36;3.80;99.90
52709;DHT22;38606;52.986;6.980;2022-12-07T17:26:10;3.50;99.90
52709;DHT22;38606;52.986;6.980;2022-12-07T17:28:36;3.80;99.90
52709;DHT22;38606;52.986;6.980;2022-12-07T17:31:06;4.90;99.90
52709;DHT22;38606;52.986;6.980;2022-12-07T17:33:32;3.80;99.90
52709;DHT22;38606;52.986;6.980;2022-12-07T17:35:59;3.70;99.90
52709;DHT22;38606;52.986;6.980;2022-12-07T17:38:25;3.80;99.90
52709;DHT22;38606;52.986;6.980;2022-12-07T17:40:50;3.70;99.90
52709;DHT22;38606;52.986;6.980;2022-12-07T17:43:16;3.20;99.90
52709;DHT22;38606;52.986;6.980;2022-12-07T17:45:42;3.70;99.90
52709;DHT22;38606;52.986;6.980;2022-12-07T17:48:08;3.80;99.90
52709;DHT22;38606;52.986;6.980;2022-12-07T17:50:33;3.70;99.90
52709;DHT22;38606;52.986;6.980;2022-12-07T17:53:18;4.30;99.90
52709;DHT22;38606;52.986;6.980;2022-12-07T17:55:43;4.40;99.90
52709;DHT22;38606;52.986;6.980;2022-12-07T17:58:09;4.00;99.90
52709;DHT22;38606;52.986;6.980;2022-12-07T18:00:35;5.20;99.90
52709;DHT22;38606;52.986;6.980;2022-12-07T18:03:06;3.80;99.90
52709;DHT22;38606;52.986;6.980;2022-12-07T18:05:37;3.80;99.90
52709;DHT22;38606;52.986;6.980;2022-12-07T18:08:03;2.80;99.90
52709;DHT22;38606;52.986;6.980;2022-12-07T18:10:29;3.90;99.90
52709;DHT22;38606;52.986;6.980;2022-12-07T18:12:55;4.70;99.90
52709;DHT22;38606;52.986;6.980;2022-12-07T18:15:41;3.80;99.90
52709;DHT22;38606;52.986;6.980;2022-12-07T18:18:07;3.60;99.90
52709;DHT22;38606;52.986;6.980;2022-12-07T18:20:32;3.20;99.90
52709;DHT22;38606;52.986;6.980;2022-12-07T18:22:58;4.30;99.90
52709;DHT22;38606;52.986;6.980;2022-12-07T18:25:24;3.80;99.90
52709;DHT22;38606;52.986;6.980;2022-12-07T18:27:49;3.80;99.90